LIBP/PSR METAR and TAF weather

Enter ICAO airport designator
Station Type Date Time Source
LIBP METAR 2021/05/15 01:20 UTC NOAA

LIBP 150120Z AUTO 22004KT 9999 BKN029/// OVC058/// 13/10 Q1010


Station Type Date Time Source
LIBP Decoded METAR 2021/05/15 01:20 UTC NOAA

Pescara, Italy (LIBP) 42-26N 014-12E 11M
May 14, 2021 - 09:20 PM EDT / 2021.05.15 0120 UTC
Wind: from the SW (220 degrees) at 5 MPH (4 KT):0
Visibility: greater than 7 mile(s):0
Sky conditions: overcast
Temperature: 55 F (13 C)
Dew Point: 50 F (10 C)
Relative Humidity: 81%
Pressure (altimeter): 29.83 in. Hg (1010 hPa)
ob: LIBP 150120Z AUTO 22004KT 9999 BKN029/// OVC058/// 13/10 Q1010
cycle: 1

Station Type Date Time Source
LIBP TAF 2021/05/14 18:21 UTC NOAA

TAF LIBP 141700Z 1418/1518 23012KT 9999 SCT030 SCT070
TEMPO 1418/1503 RA
BECMG 1422/1424 VRB05KT
BECMG 1508/1510 05010KT

Example: see airport list